Time;durP1;ratioP1;P1;durP2;ratioP2;P2;SDS_P1;SDS_P2;PMS_P1;PMS_P2;Temp;Humidity;BMP_temperature;BMP_pressure;BME280_temperature;BME280_humidity;BME280_pressure;Samples;Min_cycle;Max_cycle;Signal;HPM_P1;HPM_P2
2023/12/07 00:00:04;;;;;;;53.90;23.50;;;4.00;99.90;;;;;;5096528;28;20247;-71
2023/12/07 00:02:30;;;;;;;52.47;21.97;;;3.90;99.90;;;;;;5095938;28;20175;-72
2023/12/07 00:04:56;;;;;;;50.10;22.03;;;4.10;99.90;;;;;;5096495;28;20207;-72
2023/12/07 00:07:21;;;;;;;46.93;23.37;;;4.00;99.90;;;;;;5096201;28;20658;-72
2023/12/07 00:09:47;;;;;;;51.93;24.47;;;4.00;99.90;;;;;;5096617;28;20187;-72
2023/12/07 00:12:12;;;;;;;48.93;22.07;;;4.10;99.90;;;;;;5096690;28;20623;-72
2023/12/07 00:14:38;;;;;;;48.27;23.47;;;4.00;99.90;;;;;;5096499;28;20179;-72
2023/12/07 00:17:03;;;;;;;49.50;22.20;;;4.10;99.90;;;;;;5094875;28;20175;-72
2023/12/07 00:19:29;;;;;;;49.50;22.53;;;4.20;99.90;;;;;;5096402;28;20195;-73
2023/12/07 00:21:55;;;;;;;48.07;21.77;;;4.10;99.90;;;;;;5096222;28;20687;-72
2023/12/07 00:24:20;;;;;;;49.67;22.63;;;4.10;99.90;;;;;;5096166;28;20722;-72
2023/12/07 00:26:46;;;;;;;44.87;21.57;;;4.10;99.90;;;;;;5096001;28;20277;-72
2023/12/07 00:29:11;;;;;;;53.70;23.17;;;4.00;99.90;;;;;;5095048;28;20525;-72
2023/12/07 00:31:37;;;;;;;51.50;23.27;;;4.10;99.90;;;;;;5094499;28;20175;-71
2023/12/07 00:34:03;;;;;;;48.70;22.53;;;4.20;99.90;;;;;;5094811;28;20168;-71
2023/12/07 00:36:29;;;;;;;45.23;20.93;;;4.20;99.90;;;;;;5095988;28;20191;-71
2023/12/07 00:38:54;;;;;;;42.60;20.53;;;4.10;99.90;;;;;;5095929;28;20532;-71
2023/12/07 00:41:20;;;;;;;47.07;21.33;;;4.10;99.90;;;;;;5095957;28;20174;-71
2023/12/07 00:43:45;;;;;;;48.47;20.43;;;4.10;99.90;;;;;;5095864;28;20207;-71
2023/12/07 00:46:11;;;;;;;44.93;21.00;;;4.10;99.90;;;;;;5095009;28;20168;-72
2023/12/07 00:48:36;;;;;;;50.80;21.33;;;4.20;99.90;;;;;;5096015;28;20168;-72
2023/12/07 00:51:02;;;;;;;46.27;20.00;;;4.30;99.90;;;;;;5095865;28;20164;-72
2023/12/07 00:53:28;;;;;;;38.90;18.83;;;4.20;99.90;;;;;;5095692;28;20267;-72
2023/12/07 00:55:53;;;;;;;42.57;19.97;;;4.20;99.90;;;;;;5095692;28;20211;-72
2023/12/07 00:58:19;;;;;;;38.30;18.40;;;4.30;99.90;;;;;;5095935;28;20172;-72
2023/12/07 01:00:45;;;;;;;45.03;19.67;;;4.20;99.90;;;;;;5094150;28;20168;-70
2023/12/07 01:03:10;;;;;;;42.57;19.73;;;4.10;99.90;;;;;;5095515;28;20203;-72
2023/12/07 01:05:36;;;;;;;42.77;19.53;;;4.10;99.90;;;;;;5095303;28;20176;-72
2023/12/07 01:08:01;;;;;;;42.60;20.80;;;4.10;99.90;;;;;;5095572;28;20313;-72
2023/12/07 01:10:27;;;;;;;38.97;19.63;;;4.20;99.90;;;;;;5095398;28;20183;-72
2023/12/07 01:12:52;;;;;;;43.80;19.93;;;4.20;99.90;;;;;;5095379;28;20175;-71
2023/12/07 01:15:18;;;;;;;42.73;20.67;;;4.20;99.90;;;;;;5094943;28;20183;-72
2023/12/07 01:17:43;;;;;;;37.73;19.67;;;4.20;99.90;;;;;;5095344;28;20258;-72
2023/12/07 01:20:13;;;;;;;40.37;20.77;;;4.20;99.90;;;;;;5095207;28;20163;-72
2023/12/07 01:22:41;;;;;;;40.70;19.80;;;4.20;99.90;;;;;;5095294;28;20194;-72
2023/12/07 01:25:07;;;;;;;40.70;19.83;;;4.10;99.90;;;;;;5094967;28;20276;-72
2023/12/07 01:27:33;;;;;;;40.23;19.97;;;4.10;99.90;;;;;;5094894;28;20680;-72
2023/12/07 01:29:59;;;;;;;42.17;19.87;;;4.10;99.90;;;;;;5094777;28;20183;-72
2023/12/07 01:32:25;;;;;;;40.10;19.13;;;4.10;99.90;;;;;;5094984;28;20176;-72
2023/12/07 01:34:50;;;;;;;43.87;20.57;;;4.20;99.90;;;;;;5094658;28;20172;-72
2023/12/07 01:37:16;;;;;;;38.63;19.87;;;4.10;99.90;;;;;;5095032;28;20172;-71
2023/12/07 01:39:43;;;;;;;44.90;20.53;;;4.10;99.90;;;;;;5094929;28;20174;-71
2023/12/07 01:42:09;;;;;;;41.80;20.20;;;4.10;99.90;;;;;;5093539;28;20179;-72
2023/12/07 01:44:34;;;;;;;35.63;18.03;;;4.10;99.90;;;;;;5094404;28;20211;-72
2023/12/07 01:47:01;;;;;;;38.47;18.57;;;3.90;99.90;;;;;;5094846;28;20255;-71
2023/12/07 01:49:28;;;;;;;35.63;17.00;;;3.70;99.90;;;;;;5094648;28;20172;-72
2023/12/07 01:51:54;;;;;;;37.57;18.93;;;3.60;99.90;;;;;;5094561;28;20187;-72
2023/12/07 01:54:20;;;;;;;44.37;20.13;;;3.60;99.90;;;;;;5094536;28;20171;-71
2023/12/07 01:56:46;;;;;;;43.53;20.60;;;3.60;99.90;;;;;;5093642;28;20697;-71
2023/12/07 01:59:11;;;;;;;41.27;20.20;;;3.70;99.90;;;;;;5094526;28;20172;-72
2023/12/07 02:01:37;;;;;;;42.80;20.07;;;3.80;99.90;;;;;;5094501;28;20196;-72
2023/12/07 02:04:03;;;;;;;39.77;19.97;;;3.90;99.90;;;;;;5094409;28;20212;-72
2023/12/07 02:06:30;;;;;;;42.73;21.13;;;3.90;99.90;;;;;;5094506;28;20180;-72
2023/12/07 02:08:55;;;;;;;38.57;19.87;;;4.00;99.90;;;;;;5094421;28;20259;-72
2023/12/07 02:11:21;;;;;;;39.40;19.50;;;4.10;99.90;;;;;;5094307;28;20251;-72
2023/12/07 02:13:48;;;;;;;35.70;19.07;;;4.00;99.90;;;;;;5093813;28;20233;-72
2023/12/07 02:16:29;;;;;;;36.00;18.03;;;4.00;99.90;;;;;;5094359;28;20167;-72
2023/12/07 02:19:14;;;;;;;37.53;17.53;;;3.80;99.90;;;;;;5094327;28;20172;-72
2023/12/07 02:21:56;;;;;;;41.20;18.30;;;3.70;99.90;;;;;;5094184;28;20259;-72
2023/12/07 02:24:22;;;;;;;34.90;18.43;;;3.70;99.90;;;;;;5093925;28;20247;-72
2023/12/07 02:26:49;;;;;;;38.70;19.07;;;3.70;99.90;;;;;;5093670;28;20220;-72
2023/12/07 02:29:15;;;;;;;37.87;18.63;;;3.70;99.90;;;;;;5092387;28;20175;-72
2023/12/07 02:31:40;;;;;;;33.27;18.13;;;3.80;99.90;;;;;;5093992;28;20176;-72
2023/12/07 02:34:06;;;;;;;31.50;16.90;;;3.80;99.90;;;;;;5093952;28;20198;-71
2023/12/07 02:36:34;;;;;;;34.20;17.60;;;3.80;99.90;;;;;;5093767;28;20221;-72
2023/12/07 02:39:03;;;;;;;30.07;17.23;;;3.80;99.90;;;;;;5092693;28;20219;-70
2023/12/07 02:41:31;;;;;;;36.47;18.63;;;3.90;99.90;;;;;;5093716;28;20242;-72
2023/12/07 02:43:57;;;;;;;31.00;16.30;;;3.90;99.90;;;;;;5093287;28;20196;-72
2023/12/07 02:46:26;;;;;;;28.23;16.67;;;4.00;99.90;;;;;;5093658;28;20627;-72
2023/12/07 02:48:52;;;;;;;30.40;16.43;;;4.00;99.90;;;;;;5093723;28;20175;-72
2023/12/07 02:51:18;;;;;;;27.03;15.93;;;4.10;99.90;;;;;;5093486;28;20164;-72
2023/12/07 02:53:44;;;;;;;28.17;15.63;;;3.90;99.90;;;;;;5093800;28;20533;-71
2023/12/07 02:56:10;;;;;;;31.27;16.37;;;4.00;99.90;;;;;;5093445;28;20180;-71
2023/12/07 02:58:35;;;;;;;26.97;16.17;;;4.00;99.90;;;;;;5093127;28;20176;-71
2023/12/07 03:01:01;;;;;;;28.27;15.97;;;4.00;99.90;;;;;;5093439;28;20171;-72
2023/12/07 03:03:26;;;;;;;30.60;15.13;;;4.10;99.90;;;;;;5093224;28;20253;-71
2023/12/07 03:05:52;;;;;;;29.47;15.57;;;4.00;99.90;;;;;;5093444;28;20172;-71
2023/12/07 03:08:17;;;;;;;27.60;15.53;;;4.00;99.90;;;;;;5093220;28;20246;-71
2023/12/07 03:10:43;;;;;;;28.40;15.73;;;4.10;99.90;;;;;;5093351;28;20171;-71
2023/12/07 03:13:08;;;;;;;30.40;16.47;;;4.10;99.90;;;;;;5091740;28;20238;-71
2023/12/07 03:15:34;;;;;;;31.67;14.83;;;4.10;99.90;;;;;;5092038;28;20184;-71
2023/12/07 03:18:00;;;;;;;30.10;16.63;;;4.00;99.90;;;;;;5093332;28;20195;-70
2023/12/07 03:20:26;;;;;;;29.00;16.77;;;4.00;99.90;;;;;;5093281;28;20174;-70
2023/12/07 03:22:51;;;;;;;30.50;16.43;;;4.00;99.90;;;;;;5093090;28;20228;-72
2023/12/07 03:25:17;;;;;;;29.90;16.97;;;4.00;99.90;;;;;;5093119;28;20215;-72
2023/12/07 03:27:42;;;;;;;30.00;16.70;;;4.00;99.90;;;;;;5092508;28;20222;-72
2023/12/07 03:30:08;;;;;;;26.67;16.63;;;4.00;99.90;;;;;;5093038;28;20183;-72
2023/12/07 03:32:34;;;;;;;30.40;17.43;;;4.10;99.90;;;;;;5093106;28;20531;-72
2023/12/07 03:35:00;;;;;;;28.30;15.77;;;4.20;99.90;;;;;;5093083;28;20179;-72
2023/12/07 03:37:25;;;;;;;27.90;15.97;;;4.20;99.90;;;;;;5093081;28;20168;-72
2023/12/07 03:39:51;;;;;;;26.27;15.87;;;4.20;99.90;;;;;;5092667;28;20178;-72
2023/12/07 03:42:17;;;;;;;26.37;14.67;;;4.30;99.90;;;;;;5093030;28;20171;-72
2023/12/07 03:44:43;;;;;;;21.93;13.97;;;4.20;99.90;;;;;;5092843;28;20239;-71
2023/12/07 03:47:09;;;;;;;25.73;15.20;;;4.20;99.90;;;;;;5093068;28;20168;-70
2023/12/07 03:49:35;;;;;;;28.97;14.80;;;4.20;99.90;;;;;;5093088;28;20213;-72
2023/12/07 03:52:01;;;;;;;22.63;13.93;;;4.20;99.90;;;;;;5092753;28;20176;-70
2023/12/07 03:54:27;;;;;;;27.60;15.73;;;4.10;99.90;;;;;;5092293;28;20716;-71
2023/12/07 03:56:52;;;;;;;26.77;16.00;;;4.00;99.90;;;;;;5093005;28;20260;-71
2023/12/07 03:59:18;;;;;;;29.03;15.20;;;4.10;99.90;;;;;;5092982;28;20168;-71
2023/12/07 04:01:43;;;;;;;23.50;14.57;;;4.10;99.90;;;;;;5092979;28;20624;-72
2023/12/07 04:04:09;;;;;;;27.57;15.63;;;4.10;99.90;;;;;;5092772;28;20253;-70
2023/12/07 04:06:35;;;;;;;25.13;15.60;;;4.20;99.90;;;;;;5092818;28;20176;-71
2023/12/07 04:09:00;;;;;;;30.13;17.30;;;4.20;99.90;;;;;;5092568;28;20647;-70
2023/12/07 04:11:26;;;;;;;26.40;16.53;;;4.20;99.90;;;;;;5091658;28;20172;-70
2023/12/07 04:13:52;;;;;;;23.83;15.10;;;4.20;99.90;;;;;;5092681;28;20628;-71
2023/12/07 04:16:17;;;;;;;24.83;16.23;;;4.30;99.90;;;;;;5091091;28;20187;-70
2023/12/07 04:18:43;;;;;;;26.63;15.93;;;4.30;99.90;;;;;;5092419;28;20176;-72
2023/12/07 04:21:09;;;;;;;28.60;17.30;;;4.30;99.90;;;;;;5095364;28;20179;-72
2023/12/07 04:23:34;;;;;;;28.23;16.70;;;4.30;99.90;;;;;;5095809;28;20671;-72
2023/12/07 04:26:00;;;;;;;27.30;16.40;;;4.30;99.90;;;;;;5096103;28;20214;-71
2023/12/07 04:28:25;;;;;;;28.67;16.60;;;4.20;99.90;;;;;;5096210;28;20253;-72
2023/12/07 04:30:51;;;;;;;25.00;16.63;;;4.20;99.90;;;;;;5096314;28;20164;-72
2023/12/07 04:33:17;;;;;;;26.33;15.40;;;4.30;99.90;;;;;;5094387;28;20183;-72
2023/12/07 04:35:42;;;;;;;25.00;14.07;;;4.20;99.90;;;;;;5095438;28;20254;-72
2023/12/07 04:38:08;;;;;;;25.70;14.63;;;4.10;99.90;;;;;;5095521;28;20238;-70
2023/12/07 04:40:33;;;;;;;26.87;15.40;;;4.00;99.90;;;;;;5096167;28;20627;-70
2023/12/07 04:42:59;;;;;;;24.40;14.70;;;3.90;99.90;;;;;;5095552;28;20178;-71
2023/12/07 04:45:25;;;;;;;27.87;15.37;;;3.90;99.90;;;;;;5095832;28;20218;-70
2023/12/07 04:47:50;;;;;;;28.33;14.23;;;3.90;99.90;;;;;;5095699;28;20169;-70
2023/12/07 04:50:16;;;;;;;27.73;15.13;;;3.90;99.90;;;;;;5095614;28;20194;-71
2023/12/07 04:52:41;;;;;;;25.63;14.10;;;3.80;99.90;;;;;;5095027;28;20658;-71
2023/12/07 04:55:10;;;;;;;28.83;15.73;;;3.70;99.90;;;;;;5095492;28;20318;-72
2023/12/07 04:57:36;;;;;;;28.57;15.13;;;3.70;99.90;;;;;;5095406;28;20171;-71
2023/12/07 05:00:06;;;;;;;27.03;15.77;;;3.70;99.90;;;;;;5095395;28;20289;-71
2023/12/07 05:02:32;;;;;;;24.00;16.03;;;3.60;99.90;;;;;;5095246;28;20164;-71
2023/12/07 05:04:57;;;;;;;25.43;15.20;;;3.80;99.90;;;;;;5095270;28;20203;-71
2023/12/07 05:07:23;;;;;;;24.70;15.17;;;3.70;99.90;;;;;;5094586;28;20624;-71
2023/12/07 05:09:50;;;;;;;26.37;15.60;;;3.70;99.90;;;;;;5094849;28;20179;-71
2023/12/07 05:12:17;;;;;;;28.90;15.57;;;3.80;99.90;;;;;;5093920;28;20175;-71
2023/12/07 05:14:42;;;;;;;28.90;16.47;;;3.80;99.90;;;;;;5095132;28;20267;-71
2023/12/07 05:17:08;;;;;;;26.87;14.83;;;3.80;99.90;;;;;;5095147;28;20271;-71
2023/12/07 05:19:33;;;;;;;23.90;15.33;;;3.70;99.90;;;;;;5094963;28;20168;-71
2023/12/07 05:21:59;;;;;;;26.23;15.63;;;3.70;99.90;;;;;;5094122;28;20203;-71
2023/12/07 05:24:25;;;;;;;27.37;16.90;;;3.70;99.90;;;;;;5094633;28;20265;-71
2023/12/07 05:26:51;;;;;;;26.67;15.70;;;3.70;99.90;;;;;;5094919;28;20220;-71
2023/12/07 05:29:17;;;;;;;25.30;15.17;;;3.70;99.90;;;;;;5094480;28;20187;-72
2023/12/07 05:31:42;;;;;;;23.03;14.90;;;3.70;99.90;;;;;;5093310;28;20168;-71
2023/12/07 05:34:08;;;;;;;25.73;14.23;;;3.80;99.90;;;;;;5094418;28;20176;-72
2023/12/07 05:36:34;;;;;;;23.13;14.17;;;3.80;99.90;;;;;;5092673;28;20496;-71
2023/12/07 05:38:59;;;;;;;22.67;14.03;;;3.80;99.90;;;;;;5094173;28;20544;-71
2023/12/07 05:41:25;;;;;;;19.83;12.83;;;3.90;99.90;;;;;;5094350;28;20264;-70
2023/12/07 05:43:52;;;;;;;26.83;15.20;;;3.90;99.90;;;;;;5094166;28;20203;-71
2023/12/07 05:46:18;;;;;;;23.43;14.63;;;3.80;99.90;;;;;;5094246;28;20187;-71
2023/12/07 05:48:44;;;;;;;24.80;14.73;;;3.80;99.90;;;;;;5093046;28;20530;-71
2023/12/07 05:51:16;;;;;;;23.27;13.87;;;3.80;99.90;;;;;;5093307;28;20171;-71
2023/12/07 05:53:42;;;;;;;24.47;14.33;;;3.80;99.90;;;;;;5093709;28;20650;-72
2023/12/07 05:56:08;;;;;;;23.23;13.63;;;3.90;99.90;;;;;;5093746;28;20184;-71
2023/12/07 05:58:34;;;;;;;23.30;13.77;;;3.90;99.90;;;;;;5093624;28;20247;-71
2023/12/07 06:01:01;;;;;;;21.53;13.20;;;3.80;99.90;;;;;;5093798;28;20266;-72
2023/12/07 06:03:27;;;;;;;23.53;14.33;;;3.90;99.90;;;;;;5093824;28;20248;-72
2023/12/07 06:05:53;;;;;;;22.23;13.63;;;3.90;99.90;;;;;;5093473;28;20175;-71
2023/12/07 06:08:19;;;;;;;24.73;14.90;;;3.90;99.90;;;;;;5092090;28;20179;-72
2023/12/07 06:10:44;;;;;;;29.43;14.37;;;3.90;99.90;;;;;;5093127;28;20179;-71
2023/12/07 06:13:10;;;;;;;23.97;14.40;;;3.80;99.90;;;;;;5093297;28;20168;-71
2023/12/07 06:15:36;;;;;;;23.40;13.83;;;3.80;99.90;;;;;;5093216;28;20266;-71
2023/12/07 06:18:03;;;;;;;24.43;14.53;;;3.80;99.90;;;;;;5093030;28;20301;-71
2023/12/07 06:20:28;;;;;;;25.53;14.83;;;3.80;99.90;;;;;;5092957;28;20597;-71
2023/12/07 06:22:54;;;;;;;24.13;13.53;;;3.80;99.90;;;;;;5093130;28;20164;-71
2023/12/07 06:25:20;;;;;;;25.50;13.63;;;3.70;99.90;;;;;;5092983;28;20230;-71
2023/12/07 06:27:45;;;;;;;20.77;13.90;;;3.80;99.90;;;;;;5092183;28;20582;-70
2023/12/07 06:30:11;;;;;;;21.23;14.00;;;3.90;99.90;;;;;;5091817;28;20178;-71
2023/12/07 06:32:38;;;;;;;23.93;14.20;;;3.80;99.90;;;;;;5092371;28;20168;-72
2023/12/07 06:35:04;;;;;;;22.97;13.90;;;3.90;99.90;;;;;;5092257;28;20710;-72
2023/12/07 06:37:30;;;;;;;21.87;14.80;;;3.90;99.90;;;;;;5092613;28;20216;-72
2023/12/07 06:39:55;;;;;;;22.47;14.57;;;4.00;99.90;;;;;;5093027;28;20180;-71
2023/12/07 06:42:21;;;;;;;23.30;13.50;;;4.00;99.90;;;;;;5091794;28;20172;-72
2023/12/07 06:44:49;;;;;;;21.13;13.90;;;4.00;99.90;;;;;;5091678;28;20216;-72
2023/12/07 06:47:15;;;;;;;20.50;13.33;;;4.00;99.90;;;;;;5091882;28;20183;-71
2023/12/07 06:49:41;;;;;;;21.83;13.63;;;3.90;99.90;;;;;;5092376;28;20179;-70
2023/12/07 06:52:06;;;;;;;23.50;14.40;;;4.00;99.90;;;;;;5091779;28;20172;-73
2023/12/07 06:54:33;;;;;;;20.73;13.47;;;4.00;99.90;;;;;;5091892;28;20496;-73
2023/12/07 06:56:58;;;;;;;21.10;14.70;;;4.00;99.90;;;;;;5092088;28;20534;-72
2023/12/07 06:59:24;;;;;;;21.83;14.67;;;4.00;99.90;;;;;;5092441;28;20176;-72
2023/12/07 07:01:49;;;;;;;20.73;14.17;;;4.00;99.90;;;;;;5092228;28;20251;-72
2023/12/07 07:04:16;;;;;;;21.13;13.77;;;4.10;99.90;;;;;;5091984;28;20208;-72
2023/12/07 07:06:42;;;;;;;27.90;14.23;;;4.10;99.90;;;;;;5093081;28;20641;-73
2023/12/07 07:09:07;;;;;;;19.90;12.73;;;4.10;99.90;;;;;;5092497;28;20267;-72
2023/12/07 07:11:34;;;;;;;19.33;12.83;;;4.00;99.90;;;;;;5090891;28;20169;-71
2023/12/07 07:14:00;;;;;;;22.60;13.77;;;4.00;99.90;;;;;;5091514;28;20211;-70
2023/12/07 07:16:26;;;;;;;21.90;13.47;;;4.00;99.90;;;;;;5091161;28;20172;-72
2023/12/07 07:18:51;;;;;;;19.57;12.30;;;4.00;99.90;;;;;;5073837;28;20796;-72
2023/12/07 07:21:19;;;;;;;22.00;13.33;;;4.10;99.90;;;;;;5091533;28;20611;-72
2023/12/07 07:23:45;;;;;;;20.87;13.80;;;4.10;99.90;;;;;;5089638;28;20195;-71
2023/12/07 07:26:10;;;;;;;22.10;12.73;;;4.10;99.90;;;;;;5091774;28;20179;-71
2023/12/07 07:28:36;;;;;;;25.10;13.57;;;4.10;99.90;;;;;;5091725;28;20183;-72
2023/12/07 07:31:02;;;;;;;25.37;12.87;;;4.20;99.90;;;;;;5090760;28;20247;-71
2023/12/07 07:33:28;;;;;;;18.20;12.33;;;4.10;99.90;;;;;;5089509;28;20533;-73
2023/12/07 07:35:55;;;;;;;22.50;13.00;;;4.10;99.90;;;;;;5090455;28;20380;-71
2023/12/07 07:38:20;;;;;;;24.23;13.43;;;4.00;99.90;;;;;;5091279;28;20167;-72
2023/12/07 07:40:47;;;;;;;23.37;13.30;;;4.10;99.90;;;;;;5091078;28;20176;-73
2023/12/07 07:43:13;;;;;;;23.83;13.20;;;4.00;99.90;;;;;;5091382;28;20229;-72
2023/12/07 07:45:38;;;;;;;18.37;12.73;;;4.00;99.90;;;;;;5091488;28;20279;-71
2023/12/07 07:48:04;;;;;;;20.43;13.13;;;4.00;99.90;;;;;;5091604;28;20685;-72
2023/12/07 07:50:30;;;;;;;24.10;12.97;;;4.00;99.90;;;;;;5091907;28;20179;-72
2023/12/07 07:52:55;;;;;;;20.23;12.80;;;4.00;99.90;;;;;;5091574;28;20639;-72
2023/12/07 07:55:21;;;;;;;25.63;12.57;;;4.00;99.90;;;;;;5092392;28;20160;-72
2023/12/07 07:57:47;;;;;;;21.63;12.43;;;4.00;99.90;;;;;;5095395;28;20176;-72
2023/12/07 08:00:13;;;;;;;21.03;13.80;;;4.00;99.90;;;;;;5094018;28;20238;-71
2023/12/07 08:02:39;;;;;;;21.23;12.93;;;4.10;99.90;;;;;;5095495;28;20164;-73
2023/12/07 08:05:05;;;;;;;18.43;12.20;;;4.10;99.90;;;;;;5095191;28;20212;-72
2023/12/07 08:07:30;;;;;;;19.00;12.70;;;4.20;99.90;;;;;;5095569;28;20611;-71
2023/12/07 08:09:56;;;;;;;20.07;12.97;;;4.20;99.90;;;;;;5095347;28;20176;-71
2023/12/07 08:12:24;;;;;;;18.93;12.30;;;4.20;99.90;;;;;;5094936;28;20175;-72
2023/12/07 08:14:50;;;;;;;21.07;13.13;;;4.30;99.90;;;;;;5095155;28;20256;-71
2023/12/07 08:17:16;;;;;;;23.03;12.43;;;4.40;99.90;;;;;;5095037;28;20551;-72
2023/12/07 08:19:42;;;;;;;20.77;12.73;;;4.50;99.90;;;;;;5095129;28;20176;-72
2023/12/07 08:22:08;;;;;;;18.70;12.80;;;4.50;99.90;;;;;;5095335;28;20172;-71
2023/12/07 08:24:34;;;;;;;17.77;12.20;;;4.70;99.90;;;;;;5095299;28;20215;-72
2023/12/07 08:26:59;;;;;;;18.17;12.63;;;4.90;99.90;;;;;;5094984;28;20683;-72
2023/12/07 08:29:25;;;;;;;17.20;12.27;;;5.00;99.90;;;;;;5095036;28;20207;-71
2023/12/07 08:31:51;;;;;;;16.83;11.80;;;5.50;99.90;;;;;;5095249;28;20586;-72
2023/12/07 08:34:17;;;;;;;17.17;11.80;;;6.10;99.90;;;;;;5095219;28;20180;-72
2023/12/07 08:36:42;;;;;;;17.00;10.77;;;6.70;99.90;;;;;;5095568;28;20182;-72
2023/12/07 08:39:09;;;;;;;15.83;10.20;;;7.40;99.90;;;;;;5095277;28;20195;-71
2023/12/07 08:41:36;;;;;;;14.53;9.50;;;7.30;99.90;;;;;;5094372;28;20207;-71
2023/12/07 08:44:02;;;;;;;16.80;9.97;;;6.90;99.90;;;;;;5094352;28;20199;-72
2023/12/07 08:46:27;;;;;;;16.13;10.00;;;6.50;99.90;;;;;;5095356;28;20180;-71
2023/12/07 08:48:53;;;;;;;18.77;10.33;;;6.10;99.90;;;;;;5095127;28;20642;-72
2023/12/07 08:51:19;;;;;;;15.97;10.13;;;6.00;99.90;;;;;;5094958;28;20179;-73
2023/12/07 08:53:45;;;;;;;16.80;10.23;;;6.00;99.90;;;;;;5094824;28;20206;-73
2023/12/07 08:56:12;;;;;;;16.10;10.23;;;5.90;99.90;;;;;;5093989;28;20179;-73
2023/12/07 08:58:38;;;;;;;13.77;10.37;;;5.80;99.90;;;;;;5094313;28;20172;-73
2023/12/07 09:01:05;;;;;;;18.77;10.43;;;5.60;99.90;;;;;;5094386;28;20653;-73
2023/12/07 09:03:31;;;;;;;18.03;10.83;;;5.60;99.90;;;;;;5092427;28;20179;-73
2023/12/07 09:05:58;;;;;;;13.03;10.93;;;5.60;99.90;;;;;;5094269;28;20195;-72
2023/12/07 09:08:23;;;;;;;17.93;10.00;;;5.60;99.90;;;;;;5095132;28;20176;-72
2023/12/07 09:10:52;;;;;;;16.73;11.30;;;5.40;99.90;;;;;;5093853;28;20182;-73
2023/12/07 09:13:18;;;;;;;15.70;10.63;;;5.40;99.90;;;;;;5094381;28;20195;-72
2023/12/07 09:15:44;;;;;;;15.40;9.83;;;5.50;99.90;;;;;;5093048;28;20172;-72
2023/12/07 09:18:10;;;;;;;19.03;9.83;;;5.40;99.90;;;;;;5094505;28;20619;-73
2023/12/07 09:20:37;;;;;;;17.17;10.57;;;5.50;99.90;;;;;;5094612;28;20607;-72
2023/12/07 09:23:03;;;;;;;13.33;9.90;;;5.60;99.90;;;;;;5094438;28;20176;-72
2023/12/07 09:25:30;;;;;;;15.27;10.23;;;5.60;99.90;;;;;;5094164;28;20227;-72
2023/12/07 09:27:56;;;;;;;15.70;10.50;;;5.80;99.90;;;;;;5092549;28;20223;-72
2023/12/07 09:30:22;;;;;;;15.57;9.93;;;5.90;99.90;;;;;;5094623;28;20216;-72
2023/12/07 09:32:47;;;;;;;13.97;10.20;;;6.00;99.90;;;;;;5093933;28;20172;-72
2023/12/07 09:35:19;;;;;;;19.53;10.50;;;5.80;99.90;;;;;;5094423;28;20172;-73
2023/12/07 09:37:45;;;;;;;16.37;9.47;;;6.10;99.90;;;;;;5094428;28;20191;-73
2023/12/07 09:40:19;;;;;;;14.73;9.60;;;6.10;99.90;;;;;;5093553;28;20172;-73
2023/12/07 09:42:49;;;;;;;13.57;8.93;;;6.20;99.90;;;;;;5093308;28;20163;-72
2023/12/07 09:45:19;;;;;;;15.07;9.47;;;6.30;99.90;;;;;;5093967;28;20230;-72
2023/12/07 09:47:49;;;;;;;13.40;9.13;;;6.50;99.90;;;;;;5094195;28;20222;-73
2023/12/07 09:50:24;;;;;;;12.83;8.90;;;6.90;99.90;;;;;;5092539;28;20266;-72
2023/12/07 09:52:51;;;;;;;11.87;8.50;;;7.20;99.90;;;;;;5093906;28;20183;-72
2023/12/07 09:55:18;;;;;;;11.73;8.43;;;7.60;99.90;;;;;;5093452;28;20212;-73
2023/12/07 09:57:44;;;;;;;11.30;8.30;;;8.00;99.90;;;;;;5092885;28;20638;-73
2023/12/07 10:00:16;;;;;;;10.27;8.03;;;8.40;99.90;;;;;;5093520;28;20195;-72
2023/12/07 10:02:42;;;;;;;8.27;7.20;;;8.70;99.90;;;;;;5093345;28;20191;-72
2023/12/07 10:05:10;;;;;;;10.83;7.97;;;8.80;99.90;;;;;;5091952;28;20216;-72
2023/12/07 10:07:39;;;;;;;12.07;8.30;;;8.80;99.90;;;;;;5093517;28;20255;-71
2023/12/07 10:10:05;;;;;;;11.40;8.03;;;8.80;99.90;;;;;;5093587;28;20666;-71
2023/12/07 10:12:34;;;;;;;12.17;7.90;;;8.90;99.90;;;;;;5093107;28;20160;-74
2023/12/07 10:15:22;;;;;;;11.10;8.43;;;8.30;99.90;;;;;;5093094;28;20206;-73
2023/12/07 10:17:47;;;;;;;8.73;7.80;;;8.10;99.90;;;;;;5092720;28;20230;-73
2023/12/07 10:20:18;;;;;;;12.13;8.40;;;7.90;99.90;;;;;;5093527;28;20175;-73
2023/12/07 10:22:47;;;;;;;10.87;7.70;;;8.00;99.90;;;;;;5092440;28;20168;-73
2023/12/07 10:25:13;;;;;;;8.80;6.97;;;8.00;99.90;;;;;;5093167;28;20328;-72
2023/12/07 10:27:41;;;;;;;12.03;8.10;;;8.10;99.90;;;;;;5093161;28;20269;-73
2023/12/07 10:30:09;;;;;;;10.87;7.30;;;8.20;99.90;;;;;;5091588;28;20275;-72
2023/12/07 10:32:39;;;;;;;10.67;7.50;;;8.60;99.90;;;;;;5092325;28;20619;-73
2023/12/07 10:35:09;;;;;;;8.97;7.20;;;8.80;99.90;;;;;;5093227;28;20172;-72
2023/12/07 10:37:34;;;;;;;9.90;6.73;;;8.80;99.90;;;;;;5093200;28;20175;-72
2023/12/07 10:40:00;;;;;;;9.27;7.30;;;8.80;99.90;;;;;;5092482;28;20630;-72
2023/12/07 10:42:31;;;;;;;10.90;7.10;;;8.80;99.90;;;;;;5092485;28;20286;-73
2023/12/07 10:45:02;;;;;;;8.73;7.00;;;8.40;99.90;;;;;;5093144;28;20222;-73
2023/12/07 10:47:28;;;;;;;9.47;7.67;;;8.60;99.90;;;;;;5092696;28;20178;-73
2023/12/07 10:50:00;;;;;;;12.23;7.43;;;8.10;99.90;;;;;;5092277;28;20252;-72
2023/12/07 10:52:27;;;;;;;10.83;7.67;;;7.60;99.90;;;;;;5092969;28;20164;-74
2023/12/07 10:54:56;;;;;;;11.70;8.20;;;7.10;99.90;;;;;;5092899;28;20175;-74
2023/12/07 10:57:22;;;;;;;14.90;8.70;;;7.10;99.90;;;;;;5091895;28;20160;-73
2023/12/07 10:59:50;;;;;;;13.00;7.87;;;7.20;99.90;;;;;;5092682;28;20494;-73
2023/12/07 11:02:16;;;;;;;10.63;7.57;;;7.00;99.90;;;;;;5092958;28;20160;-73
2023/12/07 11:04:43;;;;;;;10.57;7.60;;;7.10;99.90;;;;;;5093072;28;20310;-73
2023/12/07 11:07:14;;;;;;;10.30;7.13;;;7.20;99.90;;;;;;5092551;28;20308;-73
2023/12/07 11:09:47;;;;;;;8.73;6.83;;;7.40;99.90;;;;;;5091725;28;20184;-72
2023/12/07 11:12:34;;;;;;;10.63;7.73;;;7.40;99.90;;;;;;5091307;28;20179;-72
2023/12/07 11:15:02;;;;;;;11.07;7.07;;;7.70;99.90;;;;;;5092841;28;20187;-73
2023/12/07 11:17:27;;;;;;;10.57;7.70;;;8.10;99.90;;;;;;5090528;28;20178;-74
2023/12/07 11:19:54;;;;;;;7.80;5.90;;;8.30;99.90;;;;;;5092055;28;20168;-73
2023/12/07 11:22:23;;;;;;;9.30;6.70;;;8.10;99.90;;;;;;5092532;28;20199;-74
2023/12/07 11:25:00;;;;;;;13.07;7.73;;;7.90;99.90;;;;;;5091815;28;20227;-73
2023/12/07 11:27:30;;;;;;;11.87;6.67;;;7.90;99.90;;;;;;5091800;28;20245;-73
2023/12/07 11:30:00;;;;;;;7.73;6.50;;;7.90;99.90;;;;;;5095173;28;20168;-74
2023/12/07 11:32:27;;;;;;;15.33;6.50;;;7.80;99.90;;;;;;5095706;28;20585;-74
2023/12/07 11:34:52;;;;;;;9.93;7.07;;;7.80;99.90;;;;;;5096281;28;20256;-73
2023/12/07 11:37:20;;;;;;;8.60;7.10;;;7.70;99.90;;;;;;5096456;28;20619;-73
2023/12/07 11:39:46;;;;;;;13.93;8.10;;;7.70;99.90;;;;;;5096602;28;20203;-73
2023/12/07 11:42:15;;;;;;;10.33;7.60;;;7.60;99.90;;;;;;5096405;28;20553;-73
2023/12/07 11:44:44;;;;;;;12.53;7.60;;;7.90;99.90;;;;;;5096596;28;20271;-73
2023/12/07 11:47:16;;;;;;;11.27;7.23;;;8.00;99.90;;;;;;5095573;28;20176;-74
2023/12/07 11:49:42;;;;;;;22.73;15.90;;;8.00;99.90;;;;;;5096261;28;20176;-73
2023/12/07 11:52:20;;;;;;;12.03;7.87;;;8.00;99.90;;;;;;5096591;28;20623;-73
2023/12/07 11:54:47;;;;;;;11.67;8.50;;;7.80;99.90;;;;;;5095692;28;20191;-74
2023/12/07 11:57:14;;;;;;;10.50;7.10;;;7.80;99.90;;;;;;5095567;28;20176;-74
2023/12/07 11:59:41;;;;;;;13.03;7.60;;;7.70;99.90;;;;;;5095006;28;20546;-74
2023/12/07 12:02:06;;;;;;;8.27;6.23;;;7.70;99.90;;;;;;5096164;28;20214;-74
2023/12/07 12:04:32;;;;;;;10.53;6.20;;;7.40;99.90;;;;;;5095542;28;20670;-72
2023/12/07 12:06:57;;;;;;;9.47;6.37;;;7.20;99.90;;;;;;5095784;28;20176;-73
2023/12/07 12:09:26;;;;;;;8.00;6.17;;;7.30;99.90;;;;;;5095490;28;20176;-74
2023/12/07 12:11:51;;;;;;;8.73;6.87;;;7.10;99.90;;;;;;5095691;28;20182;-73
2023/12/07 12:14:17;;;;;;;12.00;7.50;;;7.10;99.90;;;;;;5095403;28;20168;-72
2023/12/07 12:16:45;;;;;;;9.33;7.70;;;7.10;99.90;;;;;;5095340;28;20168;-72
2023/12/07 12:19:11;;;;;;;9.30;6.73;;;7.10;99.90;;;;;;5094850;28;20204;-73
2023/12/07 12:21:40;;;;;;;9.03;6.67;;;7.20;99.90;;;;;;5095385;28;20183;-73
2023/12/07 12:24:07;;;;;;;9.63;6.23;;;7.10;99.90;;;;;;5095149;28;20815;-73
2023/12/07 12:26:38;;;;;;;7.57;6.43;;;7.10;99.90;;;;;;5095170;28;20205;-72
2023/12/07 12:29:04;;;;;;;8.47;7.07;;;6.90;99.90;;;;;;5094227;28;20176;-73
2023/12/07 12:31:29;;;;;;;8.47;6.47;;;6.90;99.90;;;;;;5095031;28;20179;-72
2023/12/07 12:33:55;;;;;;;7.00;6.20;;;6.90;99.90;;;;;;5095483;28;20191;-73
2023/12/07 12:36:23;;;;;;;8.53;6.80;;;6.90;99.90;;;;;;5094903;28;20304;-73